createdAt,value
2022-12-01T00:02:17.920Z,21.60
2022-12-01T00:04:44.405Z,18.80
2022-12-01T00:07:10.978Z,21.20
2022-12-01T00:09:56.118Z,23.33
2022-12-01T00:12:22.473Z,23.50
2022-12-01T00:14:54.821Z,20.38
2022-12-01T00:17:21.790Z,19.77
2022-12-01T00:19:48.310Z,19.80
2022-12-01T00:22:14.865Z,19.50
2022-12-01T00:24:41.245Z,19.07
2022-12-01T00:27:07.595Z,18.35
2022-12-01T00:29:33.940Z,18.17
2022-12-01T00:32:00.376Z,20.77
2022-12-01T00:34:28.015Z,17.35
2022-12-01T00:36:54.431Z,19.60
2022-12-01T00:39:20.802Z,19.90
2022-12-01T00:41:47.227Z,17.48
2022-12-01T00:44:13.574Z,19.00
2022-12-01T00:46:39.995Z,18.08
2022-12-01T00:49:06.452Z,17.67
2022-12-01T00:51:32.912Z,17.63
2022-12-01T00:53:59.351Z,18.27
2022-12-01T00:56:25.777Z,18.35
2022-12-01T00:58:52.114Z,16.33
2022-12-01T01:01:19.455Z,17.40
2022-12-01T01:03:45.937Z,20.08
2022-12-01T01:06:13.085Z,19.65
2022-12-01T01:08:40.511Z,20.77
2022-12-01T01:11:07.710Z,18.35
2022-12-01T01:13:34.909Z,20.43
2022-12-01T01:16:04.434Z,16.27
2022-12-01T01:18:31.095Z,16.17
2022-12-01T01:20:59.679Z,17.95
2022-12-01T01:23:26.244Z,17.42
2022-12-01T01:25:52.998Z,17.57
2022-12-01T01:28:19.951Z,17.20
2022-12-01T01:30:46.684Z,17.13
2022-12-01T01:33:13.068Z,15.68
2022-12-01T01:35:39.401Z,17.17
2022-12-01T01:38:05.824Z,164.47
2022-12-01T01:40:32.154Z,39.47
2022-12-01T01:42:58.534Z,148.82
2022-12-01T01:45:29.274Z,65.47
2022-12-01T01:47:59.337Z,96.05
2022-12-01T01:50:28.363Z,218.30
2022-12-01T01:53:14.399Z,204.95
2022-12-01T01:55:40.781Z,138.57
2022-12-01T01:58:10.637Z,163.43
2022-12-01T02:00:40.737Z,348.33
2022-12-01T02:03:12.786Z,217.83
2022-12-01T02:05:39.919Z,188.90
2022-12-01T02:08:12.209Z,116.45
2022-12-01T02:10:53.654Z,201.25
2022-12-01T02:13:19.994Z,189.98
2022-12-01T02:16:12.428Z,210.80
2022-12-01T02:18:48.099Z,148.95
2022-12-01T02:21:14.440Z,115.05
2022-12-01T02:23:49.634Z,112.60
2022-12-01T02:26:31.242Z,168.48
2022-12-01T02:29:35.439Z,165.60
2022-12-01T02:32:07.860Z,62.80
2022-12-01T02:34:46.639Z,50.63
2022-12-01T02:37:24.735Z,192.35
2022-12-01T02:40:03.505Z,32.53
2022-12-01T02:42:49.566Z,226.03
2022-12-01T02:45:31.104Z,77.90
2022-12-01T02:48:01.808Z,158.23
2022-12-01T02:50:31.090Z,278.30
2022-12-01T02:52:58.136Z,132.10
2022-12-01T02:55:24.543Z,25.70
2022-12-01T02:57:50.886Z,114.63
2022-12-01T03:00:17.969Z,79.85
2022-12-01T03:03:22.556Z,200.65
2022-12-01T03:05:54.278Z,36.42
2022-12-01T03:08:26.736Z,220.93
2022-12-01T03:10:59.487Z,95.82
2022-12-01T03:13:37.808Z,143.05
2022-12-01T03:16:09.933Z,41.53
2022-12-01T03:18:40.018Z,26.58
2022-12-01T03:21:12.960Z,28.10
2022-12-01T03:23:45.692Z,47.40
2022-12-01T03:26:17.622Z,65.55
2022-12-01T03:28:50.314Z,87.15
2022-12-01T03:31:20.134Z,213.70
2022-12-01T03:33:52.795Z,69.97
2022-12-01T03:36:25.688Z,113.85
2022-12-01T03:39:00.088Z,241.43
2022-12-01T03:41:35.284Z,68.72
2022-12-01T03:44:11.203Z,190.95
2022-12-01T03:46:47.273Z,77.00
2022-12-01T03:49:16.538Z,27.70
2022-12-01T03:51:52.077Z,61.58
2022-12-01T03:54:42.966Z,24.77
2022-12-01T03:57:14.318Z,51.50
2022-12-01T03:59:42.402Z,21.83
2022-12-01T04:02:08.998Z,23.23
2022-12-01T04:04:35.511Z,31.80
2022-12-01T04:07:01.889Z,26.92
2022-12-01T04:09:28.606Z,38.33
2022-12-01T04:12:13.345Z,27.23
2022-12-01T04:14:39.704Z,28.70
2022-12-01T04:17:06.058Z,27.13
2022-12-01T04:19:32.437Z,25.65
2022-12-01T04:21:58.792Z,24.92
2022-12-01T04:24:25.134Z,25.80
2022-12-01T04:26:51.643Z,30.08
2022-12-01T04:29:18.041Z,23.40
2022-12-01T04:31:44.403Z,20.95
2022-12-01T04:34:11.293Z,25.95
2022-12-01T04:36:37.663Z,96.00
2022-12-01T04:39:04.237Z,34.03
2022-12-01T04:41:30.595Z,27.52
2022-12-01T04:43:57.137Z,23.50
2022-12-01T04:46:24.312Z,34.28
2022-12-01T04:48:50.823Z,47.10
2022-12-01T04:51:17.844Z,44.92
2022-12-01T04:53:44.271Z,22.92
2022-12-01T04:56:10.681Z,30.75
2022-12-01T04:58:37.825Z,40.92
2022-12-01T05:01:06.596Z,26.40
2022-12-01T05:03:37.142Z,28.48
2022-12-01T05:06:10.188Z,25.45
2022-12-01T05:08:36.784Z,30.00
2022-12-01T05:11:03.705Z,23.90
2022-12-01T05:13:30.096Z,25.47
2022-12-01T05:16:06.736Z,25.02
2022-12-01T05:18:33.858Z,23.90
2022-12-01T05:21:00.378Z,22.83
2022-12-01T05:23:28.853Z,22.88
2022-12-01T05:25:56.011Z,25.07
2022-12-01T05:28:23.919Z,18.73
2022-12-01T05:30:51.177Z,22.13
2022-12-01T05:33:17.640Z,27.60
2022-12-01T05:35:44.379Z,25.23
2022-12-01T05:38:11.197Z,20.80
2022-12-01T05:40:37.640Z,42.83
2022-12-01T05:43:04.177Z,32.05
2022-12-01T05:45:30.723Z,47.30
2022-12-01T05:47:58.384Z,29.83
2022-12-01T05:50:25.714Z,140.30
2022-12-01T05:52:52.290Z,166.40
2022-12-01T05:55:18.894Z,38.85
2022-12-01T05:57:45.321Z,62.83
2022-12-01T06:00:13.205Z,104.45
2022-12-01T06:02:42.926Z,39.63
2022-12-01T06:05:09.874Z,70.35
2022-12-01T06:07:36.354Z,46.28
2022-12-01T06:10:03.514Z,99.97
2022-12-01T06:12:29.873Z,149.35
2022-12-01T06:14:56.236Z,142.07
2022-12-01T06:17:22.616Z,28.42
2022-12-01T06:19:49.238Z,50.33
2022-12-01T06:22:15.744Z,35.00
2022-12-01T06:24:42.105Z,92.13
2022-12-01T06:27:08.473Z,147.47
2022-12-01T06:29:39.056Z,49.40
2022-12-01T06:32:08.379Z,248.77
2022-12-01T06:34:34.772Z,98.68
2022-12-01T06:37:01.115Z,35.13
2022-12-01T06:39:27.453Z,116.63
2022-12-01T06:41:53.794Z,148.68
2022-12-01T06:44:20.124Z,202.50
2022-12-01T06:46:46.485Z,238.38
2022-12-01T06:49:13.494Z,68.50
2022-12-01T06:51:40.078Z,66.93
2022-12-01T06:54:06.495Z,153.20
2022-12-01T06:56:32.852Z,100.45
2022-12-01T06:58:59.641Z,51.63
2022-12-01T07:01:26.616Z,162.85
2022-12-01T07:03:53.091Z,129.27
2022-12-01T07:06:19.523Z,88.20
2022-12-01T07:08:45.884Z,132.95
2022-12-01T07:11:14.495Z,190.75
2022-12-01T07:13:44.853Z,100.60
2022-12-01T07:16:11.628Z,55.43
2022-12-01T07:18:38.604Z,214.20
2022-12-01T07:21:08.041Z,114.03
2022-12-01T07:23:35.161Z,60.25
2022-12-01T07:26:13.702Z,116.65
2022-12-01T07:28:40.295Z,96.97
2022-12-01T07:31:11.021Z,51.25
2022-12-01T07:33:38.242Z,209.98
2022-12-01T07:36:05.591Z,96.60
2022-12-01T07:38:34.183Z,93.65
2022-12-01T07:41:09.340Z,152.63
2022-12-01T07:43:36.319Z,46.50
2022-12-01T07:46:18.791Z,87.47
2022-12-01T07:48:48.918Z,70.65
2022-12-01T07:51:16.702Z,46.85
2022-12-01T07:53:44.184Z,61.80
2022-12-01T07:56:10.890Z,56.47
2022-12-01T07:58:37.713Z,128.93
2022-12-01T08:01:08.483Z,107.13
2022-12-01T08:03:35.603Z,69.97
2022-12-01T08:06:03.353Z,64.47
2022-12-01T08:08:30.578Z,42.35
2022-12-01T08:11:00.751Z,122.93
2022-12-01T08:13:27.229Z,53.67
2022-12-01T08:15:53.608Z,37.00
2022-12-01T08:18:20.010Z,27.03
2022-12-01T08:20:46.382Z,27.15
2022-12-01T08:23:13.091Z,23.38
2022-12-01T08:25:39.442Z,18.73
2022-12-01T08:28:05.836Z,17.75
2022-12-01T08:30:32.250Z,17.13
2022-12-01T08:32:58.904Z,19.83
2022-12-01T08:35:25.863Z,17.08
2022-12-01T08:37:53.509Z,19.15
2022-12-01T08:40:21.358Z,18.95
2022-12-01T08:42:47.796Z,21.73
2022-12-01T08:45:14.342Z,22.70
2022-12-01T08:47:40.764Z,26.83
2022-12-01T08:50:07.667Z,51.88
2022-12-01T08:52:34.319Z,32.33
2022-12-01T08:55:01.306Z,40.53
2022-12-01T08:57:29.823Z,29.90
2022-12-01T08:59:56.212Z,33.42
2022-12-01T09:02:22.661Z,29.83
2022-12-01T09:04:52.366Z,55.75
2022-12-01T09:07:24.579Z,33.70
2022-12-01T09:09:52.942Z,49.00
2022-12-01T09:12:19.770Z,30.45
2022-12-01T09:14:48.170Z,113.88
2022-12-01T09:17:16.280Z,70.55
2022-12-01T09:19:43.796Z,47.23
2022-12-01T09:22:11.171Z,49.03
2022-12-01T09:24:37.863Z,73.07
2022-12-01T09:27:04.971Z,51.33
2022-12-01T09:29:31.991Z,40.03
2022-12-01T09:31:59.940Z,188.30
2022-12-01T09:34:27.778Z,44.85
2022-12-01T09:36:58.243Z,84.40
2022-12-01T09:39:25.027Z,107.60
2022-12-01T09:41:59.640Z,38.92
2022-12-01T09:44:41.165Z,106.47
2022-12-01T09:47:18.915Z,161.63
2022-12-01T09:49:56.187Z,141.68
2022-12-01T09:52:25.248Z,224.18
2022-12-01T09:54:55.086Z,143.05
2022-12-01T09:57:29.775Z,132.27
2022-12-01T09:59:57.762Z,59.28
2022-12-01T10:02:34.235Z,178.68
2022-12-01T10:05:05.171Z,134.77
2022-12-01T10:07:48.639Z,43.08
2022-12-01T10:10:21.244Z,42.07
2022-12-01T10:12:47.660Z,39.92
2022-12-01T10:15:46.400Z,30.88
2022-12-01T10:18:42.887Z,25.60
2022-12-01T10:21:15.007Z,25.17
2022-12-01T10:23:54.991Z,27.83
2022-12-01T10:26:31.363Z,30.85
2022-12-01T10:29:13.553Z,26.50
2022-12-01T10:31:54.297Z,25.58
2022-12-01T10:34:23.062Z,25.83
2022-12-01T10:36:49.815Z,23.17
2022-12-01T10:39:27.452Z,24.70
2022-12-01T10:42:02.395Z,27.25
2022-12-01T10:44:29.526Z,25.55
2022-12-01T10:46:56.894Z,22.73
2022-12-01T10:49:36.803Z,22.90
2022-12-01T10:52:03.324Z,23.95
2022-12-01T10:54:38.624Z,25.38
2022-12-01T10:57:07.079Z,24.77
2022-12-01T10:59:53.254Z,27.92
2022-12-01T11:02:28.404Z,24.63
2022-12-01T11:05:01.324Z,24.83
2022-12-01T11:07:32.059Z,26.77
2022-12-01T11:10:04.313Z,25.98
2022-12-01T11:12:31.899Z,24.17
2022-12-01T11:14:58.879Z,25.33
2022-12-01T11:17:41.091Z,26.50
2022-12-01T11:20:36.738Z,24.40
2022-12-01T11:23:18.162Z,23.83
2022-12-01T11:26:11.369Z,26.95
2022-12-01T11:28:52.180Z,26.67
2022-12-01T11:31:20.463Z,25.55
2022-12-01T11:33:51.834Z,24.95
2022-12-01T11:36:37.798Z,26.42
2022-12-01T11:39:04.558Z,25.25
2022-12-01T11:41:40.506Z,24.40
2022-12-01T11:44:43.311Z,25.33
2022-12-01T11:47:22.718Z,22.75
2022-12-01T11:49:56.526Z,23.92
2022-12-01T11:52:27.800Z,23.27
2022-12-01T11:54:58.112Z,25.17
2022-12-01T11:57:34.257Z,25.35
2022-12-01T12:00:02.150Z,22.38
2022-12-01T12:02:46.234Z,23.38
2022-12-01T12:05:37.187Z,23.23
2022-12-01T12:08:24.191Z,25.97
2022-12-01T12:11:15.069Z,23.52
2022-12-01T12:14:01.029Z,20.55
2022-12-01T12:16:30.287Z,23.83
2022-12-01T12:19:22.456Z,22.75
2022-12-01T12:22:13.661Z,24.50
2022-12-01T12:24:46.025Z,23.10
2022-12-01T12:27:23.537Z,23.00
2022-12-01T12:30:05.033Z,24.52
2022-12-01T12:32:50.089Z,23.63
2022-12-01T12:35:31.612Z,28.37
2022-12-01T12:38:22.905Z,23.38
2022-12-01T12:41:18.912Z,25.05
2022-12-01T12:44:09.337Z,24.40
2022-12-01T12:47:01.837Z,29.77
2022-12-01T12:49:47.707Z,21.63
2022-12-01T12:52:22.821Z,23.10
2022-12-01T12:54:54.883Z,23.05
2022-12-01T12:57:32.054Z,22.23
2022-12-01T13:00:08.464Z,23.42
2022-12-01T13:02:43.256Z,23.83
2022-12-01T13:05:18.758Z,22.75
2022-12-01T13:08:06.062Z,22.05
2022-12-01T13:10:59.342Z,22.63
2022-12-01T13:13:56.106Z,23.27
2022-12-01T13:16:30.442Z,24.40
2022-12-01T13:19:07.504Z,24.40
2022-12-01T13:21:46.994Z,22.83
2022-12-01T13:24:22.845Z,26.38
2022-12-01T13:26:59.287Z,23.92
2022-12-01T13:29:28.012Z,22.67
2022-12-01T13:31:55.236Z,24.40
2022-12-01T13:34:31.225Z,24.48
2022-12-01T13:36:57.590Z,22.55
2022-12-01T13:39:27.880Z,26.35
2022-12-01T13:42:00.767Z,29.30
2022-12-01T13:45:00.544Z,25.67
2022-12-01T13:47:59.860Z,26.20
2022-12-01T13:50:45.945Z,26.85
2022-12-01T13:53:30.951Z,28.65
2022-12-01T13:56:03.423Z,27.20
2022-12-01T13:58:32.972Z,29.08
2022-12-01T14:01:21.484Z,24.38
2022-12-01T14:04:03.567Z,26.70
2022-12-01T14:06:52.477Z,25.85
2022-12-01T14:09:36.916Z,27.57
2022-12-01T14:12:14.038Z,29.05
2022-12-01T14:14:46.158Z,26.55
2022-12-01T14:17:25.007Z,28.58
2022-12-01T14:19:53.059Z,31.55
2022-12-01T14:22:39.096Z,32.90
2022-12-01T14:25:22.799Z,30.65
2022-12-01T14:27:54.034Z,29.90
2022-12-01T14:30:39.215Z,28.73
2022-12-01T14:33:39.686Z,29.23
2022-12-01T14:36:24.436Z,31.43
2022-12-01T14:39:09.645Z,30.42
2022-12-01T14:41:47.596Z,31.48
2022-12-01T14:44:27.195Z,30.13
2022-12-01T14:47:11.789Z,31.10
2022-12-01T14:49:43.536Z,27.90
2022-12-01T14:52:28.155Z,29.50
2022-12-01T14:54:58.511Z,29.40
2022-12-01T14:57:30.531Z,30.85
2022-12-01T15:00:15.804Z,31.65
2022-12-01T15:02:54.896Z,31.00
2022-12-01T15:05:25.063Z,31.98
2022-12-01T15:07:58.858Z,33.90
2022-12-01T15:10:37.033Z,30.48
2022-12-01T15:13:20.159Z,29.50
2022-12-01T15:15:55.052Z,28.27
2022-12-01T15:18:28.656Z,32.25
2022-12-01T15:21:12.467Z,26.67
2022-12-01T15:24:16.554Z,29.60
2022-12-01T15:26:48.910Z,26.63
2022-12-01T15:29:19.081Z,27.63
2022-12-01T15:31:49.067Z,25.70
2022-12-01T15:34:19.094Z,27.73
2022-12-01T15:36:46.414Z,27.45
2022-12-01T15:39:16.893Z,28.00
2022-12-01T15:41:45.361Z,27.37
2022-12-01T15:44:20.756Z,29.92
2022-12-01T15:46:47.477Z,29.27
2022-12-01T15:49:27.530Z,37.08
2022-12-01T15:51:55.181Z,29.77
2022-12-01T15:54:25.307Z,26.33
2022-12-01T15:56:56.309Z,28.23
2022-12-01T15:59:41.364Z,30.90
2022-12-01T16:02:19.740Z,25.80
2022-12-01T16:04:47.468Z,29.10
2022-12-01T16:07:14.795Z,28.73
2022-12-01T16:09:43.687Z,32.35
2022-12-01T16:12:32.173Z,31.45
2022-12-01T16:15:01.357Z,29.88
2022-12-01T16:17:40.272Z,31.67
2022-12-01T16:20:22.854Z,32.53
2022-12-01T16:22:56.643Z,26.88
2022-12-01T16:25:39.703Z,30.65
2022-12-01T16:28:18.331Z,25.20
2022-12-01T16:30:44.772Z,24.15
2022-12-01T16:33:26.068Z,25.77
2022-12-01T16:35:53.418Z,27.88
2022-12-01T16:38:22.738Z,26.70
2022-12-01T16:40:52.423Z,27.30
2022-12-01T16:43:21.162Z,26.67
2022-12-01T16:45:53.026Z,27.10
2022-12-01T16:48:20.321Z,27.15
2022-12-01T16:50:47.979Z,31.55
2022-12-01T16:53:14.453Z,26.40
2022-12-01T16:55:53.892Z,24.50
2022-12-01T16:58:20.754Z,26.23
2022-12-01T17:00:53.731Z,26.52
2022-12-01T17:03:25.426Z,27.88
2022-12-01T17:05:52.792Z,26.70
2022-12-01T17:08:20.098Z,25.65
2022-12-01T17:10:51.854Z,24.77
2022-12-01T17:13:20.005Z,23.58
2022-12-01T17:15:48.804Z,23.98
2022-12-01T17:18:17.435Z,25.42
2022-12-01T17:20:44.522Z,23.05
2022-12-01T17:23:11.841Z,22.57
2022-12-01T17:25:41.789Z,23.42
2022-12-01T17:28:08.188Z,28.65
2022-12-01T17:30:36.134Z,24.02
2022-12-01T17:33:02.478Z,24.90
2022-12-01T17:35:28.847Z,23.97
2022-12-01T17:37:55.215Z,26.13
2022-12-01T17:40:21.573Z,25.73
2022-12-01T17:42:51.053Z,28.02
2022-12-01T17:45:18.242Z,25.27
2022-12-01T17:47:44.641Z,24.70
2022-12-01T17:50:11.393Z,26.50
2022-12-01T17:52:37.897Z,26.05
2022-12-01T17:55:04.681Z,24.52
2022-12-01T17:57:31.040Z,23.45
2022-12-01T17:59:57.394Z,21.70
2022-12-01T18:02:23.896Z,24.50
2022-12-01T18:04:50.593Z,24.98
2022-12-01T18:07:17.124Z,24.67
2022-12-01T18:09:43.476Z,24.73
2022-12-01T18:12:09.817Z,25.50
2022-12-01T18:14:37.503Z,28.65
2022-12-01T18:17:04.868Z,28.55
2022-12-01T18:19:31.261Z,26.08
2022-12-01T18:21:57.723Z,24.58
2022-12-01T18:24:24.070Z,30.43
2022-12-01T18:26:50.510Z,26.88
2022-12-01T18:29:25.684Z,24.95
2022-12-01T18:31:56.344Z,25.92
2022-12-01T18:34:22.757Z,26.73
2022-12-01T18:36:49.521Z,27.30
2022-12-01T18:39:15.940Z,26.90
2022-12-01T18:41:42.639Z,27.60
2022-12-01T18:44:09.023Z,30.55
2022-12-01T18:46:35.573Z,23.58
2022-12-01T18:49:02.889Z,23.73
2022-12-01T18:51:31.036Z,30.33
2022-12-01T18:53:59.287Z,31.92
2022-12-01T18:56:26.434Z,28.73
2022-12-01T18:59:00.198Z,30.83
2022-12-01T19:01:32.548Z,29.27
2022-12-01T19:03:59.931Z,29.10
2022-12-01T19:06:28.037Z,30.15
2022-12-01T19:08:55.011Z,31.08
2022-12-01T19:11:21.717Z,33.40
2022-12-01T19:13:48.625Z,32.50
2022-12-01T19:16:17.651Z,30.13
2022-12-01T19:18:45.181Z,31.67
2022-12-01T19:21:14.323Z,31.67
2022-12-01T19:23:41.409Z,32.13
2022-12-01T19:26:11.331Z,30.37
2022-12-01T19:28:38.421Z,29.45
2022-12-01T19:31:07.667Z,34.85
2022-12-01T19:33:34.129Z,32.33
2022-12-01T19:36:09.839Z,31.08
2022-12-01T19:38:36.228Z,30.20
2022-12-01T19:41:03.171Z,28.13
2022-12-01T19:43:29.736Z,33.45
2022-12-01T19:45:56.146Z,32.30
2022-12-01T19:48:22.660Z,36.75
2022-12-01T19:50:48.994Z,30.57
2022-12-01T19:53:15.359Z,30.42
2022-12-01T19:55:41.707Z,32.92
2022-12-01T19:58:08.071Z,32.10
2022-12-01T20:00:34.448Z,32.85
2022-12-01T20:03:01.086Z,36.83
2022-12-01T20:05:27.851Z,33.78
2022-12-01T20:07:54.294Z,32.05
2022-12-01T20:10:20.800Z,31.98
2022-12-01T20:12:47.604Z,30.15
2022-12-01T20:15:15.430Z,35.33
2022-12-01T20:17:42.319Z,30.25
2022-12-01T20:20:10.068Z,29.00
2022-12-01T20:22:37.026Z,27.48
2022-12-01T20:25:05.287Z,31.45
2022-12-01T20:27:32.301Z,29.33
2022-12-01T20:29:58.778Z,38.00
2022-12-01T20:32:25.204Z,35.67
2022-12-01T20:34:51.851Z,34.67
2022-12-01T20:37:18.367Z,32.83
2022-12-01T20:39:44.772Z,32.03
2022-12-01T20:42:11.324Z,33.90
2022-12-01T20:44:38.163Z,32.90
2022-12-01T20:47:04.608Z,35.22
2022-12-01T20:49:31.121Z,34.15
2022-12-01T20:51:57.567Z,34.63
2022-12-01T20:54:28.656Z,31.10
2022-12-01T20:56:55.814Z,32.33
2022-12-01T20:59:22.163Z,33.70
2022-12-01T21:01:48.536Z,31.20
2022-12-01T21:04:14.904Z,34.73
2022-12-01T21:06:41.253Z,29.30
2022-12-01T21:09:08.342Z,30.58
2022-12-01T21:12:04.989Z,29.27
2022-12-01T21:14:41.973Z,31.95
2022-12-01T21:17:24.271Z,32.00
2022-12-01T21:20:01.482Z,31.48
2022-12-01T21:22:28.028Z,34.55
2022-12-01T21:25:16.810Z,32.67
2022-12-01T21:27:43.307Z,32.72
2022-12-01T21:30:28.491Z,34.13
2022-12-01T21:33:00.364Z,44.17
2022-12-01T21:35:26.715Z,35.22
2022-12-01T21:38:07.023Z,39.17
2022-12-01T21:40:33.429Z,33.53
2022-12-01T21:43:15.021Z,34.00
2022-12-01T21:45:41.433Z,33.33
2022-12-01T21:48:15.803Z,37.78
2022-12-01T21:50:42.603Z,33.88
2022-12-01T21:53:18.240Z,34.03
2022-12-01T21:55:46.795Z,33.67
2022-12-01T21:58:24.630Z,34.42
2022-12-01T22:00:55.340Z,35.80
2022-12-01T22:03:26.923Z,35.00
2022-12-01T22:06:27.751Z,32.15
2022-12-01T22:08:48.298Z,38.23
2022-12-01T22:11:25.246Z,32.90
2022-12-01T22:14:12.705Z,34.13
2022-12-01T22:16:44.297Z,32.33
2022-12-01T22:19:16.685Z,30.80
2022-12-01T22:21:47.990Z,34.50
2022-12-01T22:24:24.931Z,32.08
2022-12-01T22:27:06.115Z,36.60
2022-12-01T22:29:44.240Z,37.40
2022-12-01T22:32:13.264Z,36.70
2022-12-01T22:34:44.562Z,35.07
2022-12-01T22:37:19.538Z,38.15
2022-12-01T22:39:47.552Z,36.67
2022-12-01T22:42:21.903Z,34.72
2022-12-01T22:44:48.473Z,40.92
2022-12-01T22:47:15.350Z,37.07
2022-12-01T22:49:42.527Z,33.25
2022-12-01T22:52:35.254Z,39.17
2022-12-01T22:55:01.641Z,39.60
2022-12-01T22:57:37.405Z,37.10
2022-12-01T23:00:16.266Z,34.67
2022-12-01T23:02:43.019Z,37.00
2022-12-01T23:05:29.150Z,38.45
2022-12-01T23:07:56.980Z,35.88
2022-12-01T23:10:33.407Z,33.47
2022-12-01T23:13:08.637Z,41.23
2022-12-01T23:15:38.886Z,38.97
2022-12-01T23:18:19.439Z,37.28
2022-12-01T23:20:54.155Z,39.00
2022-12-01T23:23:25.943Z,40.20
2022-12-01T23:25:52.360Z,40.13
2022-12-01T23:28:19.325Z,38.80
2022-12-01T23:30:49.410Z,39.03
2022-12-01T23:33:21.820Z,40.90
2022-12-01T23:36:00.722Z,42.35
2022-12-01T23:38:36.055Z,40.80
2022-12-01T23:41:06.503Z,42.42
2022-12-01T23:43:37.095Z,40.47
2022-12-01T23:46:14.412Z,44.20
2022-12-01T23:48:48.175Z,42.42
2022-12-01T23:51:28.199Z,41.80
2022-12-01T23:53:56.718Z,44.20
2022-12-01T23:56:26.522Z,39.42
2022-12-01T23:58:55.684Z,40.03
